createdAt,value
2023-12-12T03:16:46.985Z,8.45
2023-12-12T03:19:15.029Z,9.30
2023-12-12T03:21:42.907Z,9.50
2023-12-12T03:24:10.693Z,8.35
2023-12-12T03:26:38.614Z,8.43
2023-12-12T03:29:07.302Z,7.95
2023-12-12T03:31:35.538Z,8.15
2023-12-12T03:34:03.658Z,7.88
2023-12-12T03:36:31.539Z,8.32
2023-12-12T03:38:59.541Z,8.00
2023-12-12T03:41:29.686Z,7.30
2023-12-12T03:43:57.574Z,6.88
2023-12-12T03:46:25.349Z,7.72
2023-12-12T03:48:53.345Z,7.32
2023-12-12T03:51:21.348Z,6.78
2023-12-12T03:53:49.612Z,6.63
2023-12-12T03:56:17.523Z,7.25
2023-12-12T03:58:46.391Z,6.75
2023-12-12T04:01:14.621Z,6.63
2023-12-12T04:03:42.553Z,8.07
2023-12-12T04:06:10.468Z,8.02
2023-12-12T04:08:38.816Z,7.20
2023-12-12T04:11:06.851Z,7.63
2023-12-12T04:13:34.800Z,7.25
2023-12-12T04:16:02.730Z,6.43
2023-12-12T04:18:30.632Z,6.80
2023-12-12T04:20:58.543Z,6.80
2023-12-12T04:23:26.476Z,6.32
2023-12-12T04:25:54.355Z,6.65
2023-12-12T04:28:22.366Z,6.93
2023-12-12T04:30:50.208Z,7.68
2023-12-12T04:33:18.505Z,7.03
2023-12-12T04:35:46.339Z,6.65
2023-12-12T04:38:14.283Z,7.00
2023-12-12T04:40:42.086Z,6.40
2023-12-12T04:43:10.370Z,6.75
2023-12-12T04:45:38.484Z,7.68
2023-12-12T04:48:07.013Z,7.05
2023-12-12T04:50:35.052Z,6.47
2023-12-12T04:53:02.783Z,6.68
2023-12-12T04:55:30.758Z,7.05
2023-12-12T04:57:58.782Z,6.65
2023-12-12T05:00:26.729Z,6.35
2023-12-12T05:02:54.578Z,6.55
2023-12-12T05:05:22.445Z,6.40
2023-12-12T05:07:50.351Z,6.70
2023-12-12T05:10:18.413Z,7.28
2023-12-12T05:12:46.293Z,6.75
2023-12-12T05:15:14.158Z,7.70
2023-12-12T05:17:42.761Z,7.10
2023-12-12T05:20:13.079Z,7.88
2023-12-12T05:22:41.497Z,6.53
2023-12-12T05:25:09.445Z,7.30
2023-12-12T05:27:37.978Z,6.60
2023-12-12T05:30:06.651Z,6.35
2023-12-12T05:32:34.898Z,6.85
2023-12-12T05:35:02.933Z,6.93
2023-12-12T05:37:31.692Z,7.10
2023-12-12T05:39:59.710Z,6.78
2023-12-12T05:42:27.631Z,6.40
2023-12-12T05:44:55.390Z,6.90
2023-12-12T05:47:23.372Z,6.72
2023-12-12T05:49:51.250Z,7.38
2023-12-12T05:52:19.257Z,7.03
2023-12-12T05:54:47.766Z,7.22
2023-12-12T05:57:15.691Z,7.45
2023-12-12T05:59:43.627Z,8.20
2023-12-12T06:02:11.494Z,7.63
2023-12-12T06:04:40.427Z,8.77
2023-12-12T06:07:08.164Z,7.55
2023-12-12T06:09:36.040Z,7.13
2023-12-12T06:12:04.060Z,7.53
2023-12-12T06:14:32.019Z,7.13
2023-12-12T06:16:59.941Z,6.90
2023-12-12T06:19:28.158Z,6.85
2023-12-12T06:21:56.120Z,7.72
2023-12-12T06:24:24.268Z,6.68
2023-12-12T06:26:52.260Z,6.53
2023-12-12T06:29:20.197Z,6.80
2023-12-12T06:31:48.296Z,7.88
2023-12-12T06:34:16.896Z,7.20
2023-12-12T06:36:44.890Z,7.57
2023-12-12T06:39:12.771Z,7.75
2023-12-12T06:41:40.563Z,7.35
2023-12-12T06:44:08.691Z,6.97
2023-12-12T06:46:38.301Z,7.57
2023-12-12T06:49:09.105Z,7.18
2023-12-12T06:51:37.257Z,7.85
2023-12-12T06:54:05.176Z,6.90
2023-12-12T06:56:33.253Z,6.95
2023-12-12T06:59:01.415Z,7.28
2023-12-12T07:01:29.345Z,6.88
2023-12-12T07:03:59.096Z,7.32
2023-12-12T07:06:27.085Z,8.05
2023-12-12T07:08:55.586Z,7.65
2023-12-12T07:11:24.569Z,7.90
2023-12-12T07:13:52.993Z,7.93
2023-12-12T07:16:22.329Z,7.55
2023-12-12T07:18:50.798Z,7.78
2023-12-12T07:21:18.730Z,8.30
2023-12-12T07:23:48.630Z,7.90
2023-12-12T07:26:22.414Z,7.93
2023-12-12T07:28:50.971Z,8.00
2023-12-12T07:31:20.185Z,7.55
2023-12-12T07:33:48.200Z,7.75
2023-12-12T07:36:16.041Z,7.70
2023-12-12T07:38:44.108Z,7.65
2023-12-12T07:41:12.306Z,8.30
2023-12-12T07:43:40.351Z,7.53
2023-12-12T07:46:08.368Z,8.02
2023-12-12T07:48:36.343Z,7.20
2023-12-12T07:51:04.850Z,8.13
2023-12-12T07:53:32.828Z,7.25
2023-12-12T07:56:00.885Z,7.57
2023-12-12T07:58:28.943Z,7.60
2023-12-12T08:00:56.876Z,7.28
2023-12-12T08:03:25.278Z,8.00
2023-12-12T08:05:53.699Z,7.95
2023-12-12T08:08:21.553Z,8.40
2023-12-12T08:10:49.595Z,8.57
2023-12-12T08:13:17.629Z,8.65
2023-12-12T08:15:45.982Z,8.48
2023-12-12T08:18:13.957Z,8.30
2023-12-12T08:20:42.187Z,8.10
2023-12-12T08:23:11.015Z,8.45
2023-12-12T08:25:38.969Z,7.82
2023-12-12T08:28:06.981Z,8.18
2023-12-12T08:30:37.096Z,7.95
2023-12-12T08:33:05.242Z,8.07
2023-12-12T08:35:33.343Z,8.27
2023-12-12T08:38:01.220Z,7.68
2023-12-12T08:40:29.481Z,8.02
2023-12-12T08:42:57.492Z,7.47
2023-12-12T08:45:25.449Z,7.93
2023-12-12T08:47:53.324Z,7.55
2023-12-12T08:50:21.566Z,7.82
2023-12-12T08:52:49.509Z,7.07
2023-12-12T08:55:17.562Z,7.05
2023-12-12T08:57:49.981Z,7.38
2023-12-12T09:02:46.969Z,7.88
2023-12-12T09:05:14.796Z,7.78
2023-12-12T09:07:42.945Z,7.85
2023-12-12T09:10:11.499Z,7.75
2023-12-12T09:12:39.487Z,7.45
2023-12-12T09:15:07.674Z,7.28
2023-12-12T09:17:36.010Z,7.25
2023-12-12T09:20:04.570Z,7.35
2023-12-12T09:22:33.289Z,7.57
2023-12-12T09:25:01.566Z,7.28
2023-12-12T09:27:29.681Z,7.18
2023-12-12T09:29:57.849Z,6.68
2023-12-12T09:32:25.914Z,7.32
2023-12-12T09:34:53.971Z,7.10
2023-12-12T09:37:24.020Z,7.53
2023-12-12T09:39:51.977Z,6.93
2023-12-12T09:42:25.187Z,6.40
2023-12-12T09:45:04.365Z,6.65
2023-12-12T09:47:33.483Z,6.80
2023-12-12T09:50:02.422Z,6.75
2023-12-12T09:52:33.545Z,6.47
2023-12-12T09:55:01.747Z,6.10
2023-12-12T09:57:30.896Z,5.88
2023-12-12T09:59:59.573Z,6.30
2023-12-12T10:02:37.506Z,6.40
2023-12-12T10:05:06.812Z,6.10
2023-12-12T10:07:36.232Z,6.75
2023-12-12T10:10:08.837Z,5.90
2023-12-12T10:12:36.824Z,5.75
2023-12-12T10:15:05.444Z,6.43
2023-12-12T10:17:40.179Z,6.22
2023-12-12T10:20:08.977Z,6.10
2023-12-12T10:22:37.103Z,6.22
2023-12-12T10:25:12.363Z,5.97
2023-12-12T10:27:44.415Z,5.50
2023-12-12T10:30:15.857Z,5.15
2023-12-12T10:32:44.848Z,5.13
2023-12-12T10:35:12.863Z,5.90
2023-12-12T10:37:40.792Z,5.55
2023-12-12T10:40:19.799Z,5.35
2023-12-12T10:42:47.931Z,5.18
2023-12-12T10:45:17.160Z,4.78
2023-12-12T10:47:48.882Z,5.45
2023-12-12T10:50:18.045Z,4.60
2023-12-12T10:52:47.505Z,5.38
2023-12-12T10:55:16.702Z,5.13
2023-12-12T10:57:46.696Z,6.30
2023-12-12T11:00:18.452Z,5.45
2023-12-12T11:02:49.036Z,5.40
2023-12-12T11:05:18.842Z,4.97
2023-12-12T11:07:49.288Z,5.07
2023-12-12T11:10:21.285Z,5.20
2023-12-12T11:12:53.334Z,5.10
2023-12-12T11:15:21.813Z,4.83
2023-12-12T11:17:51.851Z,4.90
2023-12-12T11:20:21.174Z,4.35
2023-12-12T11:22:52.129Z,4.18
2023-12-12T11:25:22.095Z,4.63
2023-12-12T11:27:55.378Z,4.20
2023-12-12T11:30:33.225Z,4.53
2023-12-12T11:33:02.191Z,4.63
2023-12-12T11:35:32.817Z,4.75
2023-12-12T11:38:06.406Z,4.28
2023-12-12T11:40:35.776Z,3.75
2023-12-12T11:43:20.956Z,3.97
2023-12-12T11:45:49.168Z,4.07
2023-12-12T11:48:17.425Z,4.07
2023-12-12T11:50:47.314Z,3.75
2023-12-12T11:53:44.688Z,4.07
2023-12-12T11:56:16.899Z,4.38
2023-12-12T11:58:44.998Z,3.67
2023-12-12T12:01:21.169Z,4.15
2023-12-12T12:03:49.379Z,4.05
2023-12-12T12:06:17.298Z,3.90
2023-12-12T12:08:45.870Z,3.70
2023-12-12T12:11:13.925Z,4.00
2023-12-12T12:13:43.301Z,4.00
2023-12-12T12:16:12.094Z,3.83
2023-12-12T12:18:40.424Z,3.78
2023-12-12T12:21:09.266Z,3.67
2023-12-12T12:23:41.927Z,3.80
2023-12-12T12:26:10.049Z,3.83
2023-12-12T12:28:38.254Z,3.85
2023-12-12T12:31:07.113Z,3.63
2023-12-12T12:33:37.241Z,3.40
2023-12-12T12:36:06.299Z,3.15
2023-12-12T12:38:35.271Z,3.53
2023-12-12T12:41:03.282Z,3.40
2023-12-12T12:43:31.405Z,3.42
2023-12-12T12:46:00.287Z,3.33
2023-12-12T12:48:31.248Z,3.22
2023-12-12T12:50:59.674Z,3.77
2023-12-12T12:53:28.037Z,3.30
2023-12-12T12:55:56.097Z,3.22
2023-12-12T12:58:24.075Z,3.20
2023-12-12T13:00:51.946Z,3.42
2023-12-12T13:03:20.321Z,4.55
2023-12-12T13:05:48.611Z,4.30
2023-12-12T13:08:18.619Z,4.45
2023-12-12T13:10:50.610Z,4.05
2023-12-12T13:13:22.991Z,4.10
2023-12-12T13:15:51.638Z,4.00
2023-12-12T13:18:20.023Z,4.03
2023-12-12T13:20:49.028Z,3.95
2023-12-12T13:23:17.426Z,3.63
2023-12-12T13:25:46.041Z,3.20
2023-12-12T13:28:14.306Z,3.88
2023-12-12T13:30:42.194Z,3.60
2023-12-12T13:33:13.237Z,3.97
2023-12-12T13:35:41.564Z,4.10
2023-12-12T13:38:09.607Z,3.75
2023-12-12T13:40:39.410Z,3.42
2023-12-12T13:43:07.707Z,3.75
2023-12-12T13:45:37.789Z,3.97
2023-12-12T13:48:06.275Z,3.67
2023-12-12T13:50:34.959Z,3.70
2023-12-12T13:53:03.008Z,3.78
2023-12-12T13:55:30.886Z,3.72
2023-12-12T13:57:58.972Z,3.90
2023-12-12T14:00:28.585Z,3.78
2023-12-12T14:02:56.632Z,3.50
2023-12-12T14:05:27.025Z,3.90
2023-12-12T14:07:57.243Z,4.30
2023-12-12T14:10:25.564Z,3.63
2023-12-12T14:12:53.604Z,3.97
2023-12-12T14:15:21.504Z,4.43
2023-12-12T14:17:49.596Z,4.10
2023-12-12T14:20:17.653Z,4.10
2023-12-12T14:22:52.552Z,5.00
2023-12-12T14:25:25.677Z,4.68
2023-12-12T14:27:53.757Z,5.05
2023-12-12T14:30:28.359Z,4.57
2023-12-12T14:33:00.253Z,4.80
2023-12-12T14:35:30.358Z,5.32
2023-12-12T14:37:58.463Z,4.63
2023-12-12T14:40:27.386Z,4.75
2023-12-12T14:42:55.454Z,5.20
2023-12-12T14:45:23.576Z,4.93
2023-12-12T14:47:51.523Z,5.07
2023-12-12T14:50:20.610Z,5.13
2023-12-12T14:52:48.597Z,5.30
2023-12-12T14:55:16.637Z,4.88
2023-12-12T14:57:44.917Z,5.07
2023-12-12T15:00:23.672Z,5.05
2023-12-12T15:02:55.078Z,5.10
2023-12-12T15:05:23.280Z,5.28
2023-12-12T15:07:51.366Z,5.43
2023-12-12T15:10:19.691Z,5.70
2023-12-12T15:12:47.673Z,5.60
2023-12-12T15:15:15.722Z,5.45
2023-12-12T15:17:43.888Z,5.03
2023-12-12T15:20:12.994Z,5.28
2023-12-12T15:22:41.692Z,6.13
2023-12-12T15:25:21.556Z,6.32
2023-12-12T15:28:22.982Z,5.78
2023-12-12T15:30:43.933Z,6.63
2023-12-12T15:33:11.841Z,6.78
2023-12-12T15:35:40.247Z,6.85
2023-12-12T15:38:08.608Z,6.57
2023-12-12T15:40:37.519Z,6.75
2023-12-12T15:43:09.903Z,6.63
2023-12-12T15:45:38.101Z,7.35
2023-12-12T15:48:06.437Z,6.30
2023-12-12T15:50:34.633Z,6.55
2023-12-12T15:53:02.448Z,6.85
2023-12-12T15:55:31.406Z,6.70
2023-12-12T15:57:59.612Z,6.85
2023-12-12T16:00:27.552Z,7.30
2023-12-12T16:02:55.794Z,7.95
2023-12-12T16:05:24.055Z,7.45
2023-12-12T16:07:52.508Z,8.05
2023-12-12T16:10:21.621Z,8.60
2023-12-12T16:12:49.701Z,7.97
2023-12-12T16:15:17.478Z,7.90
2023-12-12T16:17:46.352Z,7.60
2023-12-12T16:20:14.438Z,8.13
2023-12-12T16:22:42.562Z,8.10
2023-12-12T16:25:11.581Z,7.50
2023-12-12T16:27:43.825Z,8.32
2023-12-12T16:30:12.619Z,8.32
2023-12-12T16:32:41.308Z,7.88
2023-12-12T16:35:09.420Z,8.60
2023-12-12T16:37:38.056Z,8.30
2023-12-12T16:40:07.535Z,7.65
2023-12-12T16:42:35.680Z,7.90
2023-12-12T16:45:03.991Z,8.07
2023-12-12T16:47:31.990Z,8.02
2023-12-12T16:49:59.864Z,8.00
2023-12-12T16:52:28.052Z,8.07
2023-12-12T16:54:55.887Z,8.13
2023-12-12T16:57:23.930Z,8.05
2023-12-12T16:59:52.106Z,7.97
2023-12-12T17:02:21.352Z,8.65
2023-12-12T17:04:50.211Z,8.25
2023-12-12T17:07:18.330Z,9.30
2023-12-12T17:09:46.423Z,9.43
2023-12-12T17:12:14.810Z,9.48
2023-12-12T17:14:42.725Z,9.43
2023-12-12T17:17:10.942Z,9.40
2023-12-12T17:19:38.938Z,9.48
2023-12-12T17:22:07.121Z,9.30
2023-12-12T17:24:37.253Z,9.70
2023-12-12T17:27:05.282Z,10.10
2023-12-12T17:29:33.997Z,10.73
2023-12-12T17:32:02.986Z,10.60
2023-12-12T17:34:31.045Z,10.68
2023-12-12T17:36:58.969Z,10.30
2023-12-12T17:39:26.923Z,10.50
2023-12-12T17:41:54.927Z,11.63
2023-12-12T17:44:23.620Z,10.63
2023-12-12T17:46:52.376Z,10.48
2023-12-12T17:49:20.438Z,10.23
2023-12-12T17:51:48.751Z,11.00
2023-12-12T17:54:17.123Z,10.60
2023-12-12T17:56:44.980Z,10.40
2023-12-12T17:59:14.719Z,10.40
2023-12-12T18:01:43.406Z,10.48
2023-12-12T18:04:11.662Z,11.02
2023-12-12T18:06:40.263Z,10.40
2023-12-12T18:09:08.926Z,10.90
2023-12-12T18:11:36.897Z,10.85
2023-12-12T18:14:05.589Z,10.73
2023-12-12T18:16:34.194Z,10.82
2023-12-12T18:19:04.714Z,11.43
2023-12-12T18:21:33.234Z,11.02
2023-12-12T18:24:01.249Z,11.10
2023-12-12T18:26:32.368Z,11.20
2023-12-12T18:29:01.877Z,11.73
2023-12-12T18:31:33.204Z,11.27
2023-12-12T18:34:02.643Z,11.03
2023-12-12T18:36:31.003Z,11.38
2023-12-12T18:38:58.949Z,10.95
2023-12-12T18:41:27.753Z,10.55
2023-12-12T18:43:56.191Z,11.02
2023-12-12T18:46:24.444Z,10.50
2023-12-12T18:48:52.865Z,11.10
2023-12-12T18:51:20.970Z,10.98
2023-12-12T18:53:49.874Z,11.20
2023-12-12T18:56:17.794Z,11.35
